sensor_id;sensor_type;location;lat;lon;timestamp;pressure;altitude;pressure_sealevel;temperature;humidity
9746;BME280;4912;50.836;12.958;2022-08-01T00:00:14;97610.03;;;23.31;61.04
9746;BME280;4912;50.836;12.958;2022-08-01T00:02:47;97618.47;;;23.23;60.73
9746;BME280;4912;50.836;12.958;2022-08-01T00:05:18;97616.97;;;23.22;61.54
9746;BME280;4912;50.836;12.958;2022-08-01T00:07:48;97616.38;;;23.16;59.32
9746;BME280;4912;50.836;12.958;2022-08-01T00:10:18;97614.13;;;23.15;60.02
9746;BME280;4912;50.836;12.958;2022-08-01T00:12:48;97611.44;;;23.09;61.66
9746;BME280;4912;50.836;12.958;2022-08-01T00:15:19;97612.94;;;23.03;62.47
9746;BME280;4912;50.836;12.958;2022-08-01T00:17:51;97612.53;;;22.99;62.32
9746;BME280;4912;50.836;12.958;2022-08-01T00:20:22;97615.50;;;22.93;63.01
9746;BME280;4912;50.836;12.958;2022-08-01T00:22:52;97605.16;;;22.88;63.44
9746;BME280;4912;50.836;12.958;2022-08-01T00:25:22;97606.28;;;22.85;63.60
9746;BME280;4912;50.836;12.958;2022-08-01T00:28:00;97597.97;;;22.79;63.58
9746;BME280;4912;50.836;12.958;2022-08-01T00:30:30;97603.19;;;22.75;63.43
9746;BME280;4912;50.836;12.958;2022-08-01T00:33:03;97599.00;;;22.69;63.49
9746;BME280;4912;50.836;12.958;2022-08-01T00:35:33;97594.09;;;22.62;63.72
9746;BME280;4912;50.836;12.958;2022-08-01T00:38:04;97596.91;;;22.62;63.71
9746;BME280;4912;50.836;12.958;2022-08-01T00:40:34;97597.63;;;22.62;63.18
9746;BME280;4912;50.836;12.958;2022-08-01T00:43:04;97596.16;;;22.61;63.36
9746;BME280;4912;50.836;12.958;2022-08-01T00:45:34;97594.97;;;22.57;63.44
9746;BME280;4912;50.836;12.958;2022-08-01T00:48:07;97598.31;;;22.48;63.72
9746;BME280;4912;50.836;12.958;2022-08-01T00:50:38;97603.13;;;22.39;63.74
9746;BME280;4912;50.836;12.958;2022-08-01T00:53:09;97602.13;;;22.29;64.46
9746;BME280;4912;50.836;12.958;2022-08-01T00:55:45;97604.69;;;22.20;65.07
9746;BME280;4912;50.836;12.958;2022-08-01T00:58:16;97595.88;;;22.23;64.93
9746;BME280;4912;50.836;12.958;2022-08-01T01:00:49;97597.41;;;22.24;64.71
9746;BME280;4912;50.836;12.958;2022-08-01T01:03:24;97601.53;;;22.23;64.94
9746;BME280;4912;50.836;12.958;2022-08-01T01:06:28;97599.63;;;22.18;65.38
9746;BME280;4912;50.836;12.958;2022-08-01T01:09:19;97600.91;;;22.17;65.55
9746;BME280;4912;50.836;12.958;2022-08-01T01:12:08;97596.59;;;22.16;64.76
9746;BME280;4912;50.836;12.958;2022-08-01T01:14:51;97590.19;;;22.16;65.32
9746;BME280;4912;50.836;12.958;2022-08-01T01:17:35;97595.06;;;22.15;65.36
9746;BME280;4912;50.836;12.958;2022-08-01T01:20:24;97593.56;;;22.14;65.63
9746;BME280;4912;50.836;12.958;2022-08-01T01:23:10;97592.59;;;22.12;65.67
9746;BME280;4912;50.836;12.958;2022-08-01T01:25:54;97581.13;;;22.10;65.55
9746;BME280;4912;50.836;12.958;2022-08-01T01:31:27;97582.31;;;22.14;62.62
9746;BME280;4912;50.836;12.958;2022-08-01T01:33:59;97588.28;;;22.11;61.56
9746;BME280;4912;50.836;12.958;2022-08-01T01:36:31;97592.00;;;22.05;61.99
9746;BME280;4912;50.836;12.958;2022-08-01T01:39:02;97591.63;;;22.09;61.79
9746;BME280;4912;50.836;12.958;2022-08-01T01:41:35;97586.47;;;22.21;62.78
9746;BME280;4912;50.836;12.958;2022-08-01T01:44:10;97587.94;;;22.14;62.09
9746;BME280;4912;50.836;12.958;2022-08-01T01:46:42;97582.09;;;22.12;61.58
9746;BME280;4912;50.836;12.958;2022-08-01T01:49:13;97587.56;;;22.18;62.03
9746;BME280;4912;50.836;12.958;2022-08-01T01:51:46;97580.81;;;22.21;62.25
9746;BME280;4912;50.836;12.958;2022-08-01T01:54:30;97583.31;;;22.24;62.67
9746;BME280;4912;50.836;12.958;2022-08-01T01:57:04;97582.19;;;22.27;63.15
9746;BME280;4912;50.836;12.958;2022-08-01T01:59:39;97579.72;;;22.24;62.58
9746;BME280;4912;50.836;12.958;2022-08-01T02:02:11;97578.13;;;22.36;61.68
9746;BME280;4912;50.836;12.958;2022-08-01T02:04:45;97583.22;;;22.37;62.54
9746;BME280;4912;50.836;12.958;2022-08-01T02:07:19;97577.16;;;22.33;63.05
9746;BME280;4912;50.836;12.958;2022-08-01T02:09:52;97578.88;;;22.36;62.81
9746;BME280;4912;50.836;12.958;2022-08-01T02:12:24;97589.19;;;22.34;62.22
9746;BME280;4912;50.836;12.958;2022-08-01T02:14:57;97586.59;;;22.36;62.03
9746;BME280;4912;50.836;12.958;2022-08-01T02:17:27;97584.91;;;22.40;62.35
9746;BME280;4912;50.836;12.958;2022-08-01T02:19:58;97590.00;;;22.42;62.41
9746;BME280;4912;50.836;12.958;2022-08-01T02:22:33;97595.66;;;22.42;61.44
9746;BME280;4912;50.836;12.958;2022-08-01T02:27:45;97591.63;;;22.30;61.25
9746;BME280;4912;50.836;12.958;2022-08-01T02:30:25;97598.34;;;22.27;61.46
9746;BME280;4912;50.836;12.958;2022-08-01T02:33:01;97599.09;;;22.27;61.67
9746;BME280;4912;50.836;12.958;2022-08-01T02:35:42;97598.91;;;22.25;61.16
9746;BME280;4912;50.836;12.958;2022-08-01T02:38:37;97609.59;;;22.19;61.60
9746;BME280;4912;50.836;12.958;2022-08-01T02:41:13;97605.72;;;22.09;61.71
9746;BME280;4912;50.836;12.958;2022-08-01T02:43:52;97603.25;;;22.05;61.98
9746;BME280;4912;50.836;12.958;2022-08-01T02:46:30;97601.69;;;21.97;62.09
9746;BME280;4912;50.836;12.958;2022-08-01T02:49:07;97612.50;;;21.93;62.59
9746;BME280;4912;50.836;12.958;2022-08-01T02:51:39;97612.63;;;22.00;62.61
9746;BME280;4912;50.836;12.958;2022-08-01T02:54:11;97621.91;;;22.09;62.70
9746;BME280;4912;50.836;12.958;2022-08-01T02:56:42;97617.97;;;22.12;63.30
9746;BME280;4912;50.836;12.958;2022-08-01T02:59:16;97619.13;;;22.16;62.70
9746;BME280;4912;50.836;12.958;2022-08-01T03:01:55;97624.75;;;22.16;62.56
9746;BME280;4912;50.836;12.958;2022-08-01T03:04:29;97626.69;;;22.21;63.60
9746;BME280;4912;50.836;12.958;2022-08-01T03:07:01;97617.88;;;22.25;63.58
9746;BME280;4912;50.836;12.958;2022-08-01T03:09:37;97622.97;;;22.26;63.69
9746;BME280;4912;50.836;12.958;2022-08-01T03:12:11;97624.28;;;22.25;63.46
9746;BME280;4912;50.836;12.958;2022-08-01T03:14:44;97633.84;;;22.22;63.00
9746;BME280;4912;50.836;12.958;2022-08-01T03:17:21;97628.63;;;22.26;62.40
9746;BME280;4912;50.836;12.958;2022-08-01T03:19:56;97632.53;;;22.23;62.43
9746;BME280;4912;50.836;12.958;2022-08-01T03:22:29;97629.94;;;22.25;63.26
9746;BME280;4912;50.836;12.958;2022-08-01T03:25:01;97633.13;;;22.29;63.07
9746;BME280;4912;50.836;12.958;2022-08-01T03:27:33;97630.88;;;22.28;62.55
9746;BME280;4912;50.836;12.958;2022-08-01T03:30:07;97634.03;;;22.24;62.15
9746;BME280;4912;50.836;12.958;2022-08-01T03:32:41;97633.66;;;22.20;62.70
9746;BME280;4912;50.836;12.958;2022-08-01T03:35:11;97628.00;;;22.20;62.46
9746;BME280;4912;50.836;12.958;2022-08-01T03:37:45;97634.19;;;22.19;62.40
9746;BME280;4912;50.836;12.958;2022-08-01T03:40:39;97637.91;;;22.14;62.79
9746;BME280;4912;50.836;12.958;2022-08-01T03:43:14;97631.78;;;22.23;62.74
9746;BME280;4912;50.836;12.958;2022-08-01T03:45:50;97629.94;;;22.25;62.64
9746;BME280;4912;50.836;12.958;2022-08-01T03:48:28;97627.50;;;22.29;62.47
9746;BME280;4912;50.836;12.958;2022-08-01T03:51:03;97638.41;;;22.33;62.06
9746;BME280;4912;50.836;12.958;2022-08-01T03:53:37;97639.38;;;22.35;62.67
9746;BME280;4912;50.836;12.958;2022-08-01T03:56:08;97644.81;;;22.33;62.22
9746;BME280;4912;50.836;12.958;2022-08-01T03:58:39;97639.69;;;22.24;62.70
9746;BME280;4912;50.836;12.958;2022-08-01T04:01:16;97640.22;;;22.23;62.58
9746;BME280;4912;50.836;12.958;2022-08-01T04:03:50;97649.44;;;22.23;62.46
9746;BME280;4912;50.836;12.958;2022-08-01T04:06:20;97653.22;;;22.26;62.63
9746;BME280;4912;50.836;12.958;2022-08-01T04:08:50;97643.44;;;22.27;62.77
9746;BME280;4912;50.836;12.958;2022-08-01T04:11:25;97656.44;;;22.30;63.22
9746;BME280;4912;50.836;12.958;2022-08-01T04:13:57;97662.91;;;22.38;64.25
9746;BME280;4912;50.836;12.958;2022-08-01T04:16:34;97654.38;;;22.30;64.48
9746;BME280;4912;50.836;12.958;2022-08-01T04:19:07;97656.59;;;22.24;64.79
9746;BME280;4912;50.836;12.958;2022-08-01T04:21:37;97658.50;;;22.29;65.68
9746;BME280;4912;50.836;12.958;2022-08-01T04:24:11;97662.09;;;22.30;66.74
9746;BME280;4912;50.836;12.958;2022-08-01T04:26:44;97669.84;;;22.16;68.42
9746;BME280;4912;50.836;12.958;2022-08-01T04:29:17;97662.69;;;22.15;68.59
9746;BME280;4912;50.836;12.958;2022-08-01T04:31:50;97672.47;;;22.14;69.02
9746;BME280;4912;50.836;12.958;2022-08-01T04:34:28;97671.59;;;22.19;69.10
9746;BME280;4912;50.836;12.958;2022-08-01T04:37:01;97674.41;;;22.19;68.94
9746;BME280;4912;50.836;12.958;2022-08-01T04:39:34;97679.28;;;22.19;68.97
9746;BME280;4912;50.836;12.958;2022-08-01T04:42:17;97678.31;;;22.16;69.11
9746;BME280;4912;50.836;12.958;2022-08-01T04:44:56;97678.53;;;22.18;69.54
9746;BME280;4912;50.836;12.958;2022-08-01T04:47:27;97682.84;;;22.19;69.34
9746;BME280;4912;50.836;12.958;2022-08-01T04:50:00;97678.31;;;22.16;69.71
9746;BME280;4912;50.836;12.958;2022-08-01T04:52:35;97687.25;;;22.07;70.43
9746;BME280;4912;50.836;12.958;2022-08-01T04:55:09;97684.97;;;22.05;70.99
9746;BME280;4912;50.836;12.958;2022-08-01T04:57:39;97684.47;;;21.94;72.16
9746;BME280;4912;50.836;12.958;2022-08-01T05:00:12;97679.59;;;21.94;72.20
9746;BME280;4912;50.836;12.958;2022-08-01T05:02:44;97685.00;;;21.92;73.17
9746;BME280;4912;50.836;12.958;2022-08-01T05:05:16;97686.66;;;21.88;73.12
9746;BME280;4912;50.836;12.958;2022-08-01T05:07:47;97696.34;;;21.79;73.25
9746;BME280;4912;50.836;12.958;2022-08-01T05:10:18;97691.06;;;21.62;75.50
9746;BME280;4912;50.836;12.958;2022-08-01T05:12:48;97691.00;;;21.55;75.30
9746;BME280;4912;50.836;12.958;2022-08-01T05:15:18;97690.38;;;21.36;76.42
9746;BME280;4912;50.836;12.958;2022-08-01T05:17:49;97690.50;;;21.30;76.64
9746;BME280;4912;50.836;12.958;2022-08-01T05:20:21;97695.25;;;21.35;77.52
9746;BME280;4912;50.836;12.958;2022-08-01T05:22:52;97695.50;;;21.24;77.62
9746;BME280;4912;50.836;12.958;2022-08-01T05:25:23;97697.97;;;21.28;77.99
9746;BME280;4912;50.836;12.958;2022-08-01T05:28:15;97694.09;;;21.31;78.05
9746;BME280;4912;50.836;12.958;2022-08-01T05:30:45;97703.28;;;21.18;79.02
9746;BME280;4912;50.836;12.958;2022-08-01T05:33:15;97690.84;;;21.13;79.81
9746;BME280;4912;50.836;12.958;2022-08-01T05:35:50;97692.81;;;21.18;79.70
9746;BME280;4912;50.836;12.958;2022-08-01T05:38:20;97690.63;;;21.24;80.62
9746;BME280;4912;50.836;12.958;2022-08-01T05:40:50;97694.50;;;21.35;79.65
9746;BME280;4912;50.836;12.958;2022-08-01T05:43:20;97695.84;;;21.20;81.06
9746;BME280;4912;50.836;12.958;2022-08-01T05:45:55;97694.63;;;21.29;80.48
9746;BME280;4912;50.836;12.958;2022-08-01T05:48:25;97697.44;;;21.29;80.14
9746;BME280;4912;50.836;12.958;2022-08-01T05:50:58;97695.69;;;21.13;80.58
9746;BME280;4912;50.836;12.958;2022-08-01T05:53:28;97696.78;;;21.10;81.67
9746;BME280;4912;50.836;12.958;2022-08-01T05:56:01;97696.22;;;21.11;81.37
9746;BME280;4912;50.836;12.958;2022-08-01T05:58:31;97694.09;;;21.31;80.32
9746;BME280;4912;50.836;12.958;2022-08-01T06:01:01;97688.69;;;21.19;81.04
9746;BME280;4912;50.836;12.958;2022-08-01T06:03:31;97684.13;;;21.16;81.20
9746;BME280;4912;50.836;12.958;2022-08-01T06:06:04;97692.97;;;21.34;80.52
9746;BME280;4912;50.836;12.958;2022-08-01T06:08:35;97696.25;;;21.38;79.38
9746;BME280;4912;50.836;12.958;2022-08-01T06:11:05;97694.72;;;21.37;79.32
9746;BME280;4912;50.836;12.958;2022-08-01T06:13:39;97692.22;;;21.33;79.52
9746;BME280;4912;50.836;12.958;2022-08-01T06:16:15;97697.84;;;21.33;80.64
9746;BME280;4912;50.836;12.958;2022-08-01T06:18:45;97706.41;;;21.41;79.86
9746;BME280;4912;50.836;12.958;2022-08-01T06:21:24;97711.06;;;21.38;79.92
9746;BME280;4912;50.836;12.958;2022-08-01T06:23:54;97705.88;;;21.42;79.74
9746;BME280;4912;50.836;12.958;2022-08-01T06:26:25;97708.69;;;21.29;80.42
9746;BME280;4912;50.836;12.958;2022-08-01T06:28:55;97712.59;;;21.26;81.12
9746;BME280;4912;50.836;12.958;2022-08-01T06:31:25;97712.03;;;21.28;81.03
9746;BME280;4912;50.836;12.958;2022-08-01T06:33:59;97708.25;;;21.38;80.72
9746;BME280;4912;50.836;12.958;2022-08-01T06:36:32;97709.94;;;21.54;80.44
9746;BME280;4912;50.836;12.958;2022-08-01T06:39:03;97710.03;;;21.62;79.52
9746;BME280;4912;50.836;12.958;2022-08-01T06:41:33;97709.47;;;21.63;78.63
9746;BME280;4912;50.836;12.958;2022-08-01T06:44:04;97711.16;;;21.80;78.24
9746;BME280;4912;50.836;12.958;2022-08-01T06:46:34;97716.75;;;21.93;77.96
9746;BME280;4912;50.836;12.958;2022-08-01T06:49:04;97719.16;;;21.89;78.02
9746;BME280;4912;50.836;12.958;2022-08-01T06:51:37;97719.00;;;22.08;77.72
9746;BME280;4912;50.836;12.958;2022-08-01T06:54:07;97720.31;;;22.07;77.13
9746;BME280;4912;50.836;12.958;2022-08-01T06:56:37;97723.16;;;21.93;78.18
9746;BME280;4912;50.836;12.958;2022-08-01T06:59:08;97723.94;;;21.81;78.63
9746;BME280;4912;50.836;12.958;2022-08-01T07:01:38;97723.88;;;21.73;79.17
9746;BME280;4912;50.836;12.958;2022-08-01T07:04:08;97726.63;;;21.86;79.02
9746;BME280;4912;50.836;12.958;2022-08-01T07:06:41;97726.50;;;21.92;78.90
9746;BME280;4912;50.836;12.958;2022-08-01T07:09:11;97725.75;;;21.91;78.72
9746;BME280;4912;50.836;12.958;2022-08-01T07:11:42;97726.97;;;22.17;77.92
9746;BME280;4912;50.836;12.958;2022-08-01T07:14:12;97720.38;;;22.35;77.24
9746;BME280;4912;50.836;12.958;2022-08-01T07:16:42;97724.97;;;22.45;76.61
9746;BME280;4912;50.836;12.958;2022-08-01T07:19:12;97722.09;;;22.59;76.69
9746;BME280;4912;50.836;12.958;2022-08-01T07:21:45;97721.97;;;22.43;76.42
9746;BME280;4912;50.836;12.958;2022-08-01T07:24:16;97729.53;;;22.49;76.37
9746;BME280;4912;50.836;12.958;2022-08-01T07:26:48;97723.88;;;22.28;77.58
9746;BME280;4912;50.836;12.958;2022-08-01T07:29:22;97712.81;;;22.30;77.37
9746;BME280;4912;50.836;12.958;2022-08-01T07:31:54;97720.59;;;22.37;77.96
9746;BME280;4912;50.836;12.958;2022-08-01T07:34:25;97721.06;;;22.49;78.19
9746;BME280;4912;50.836;12.958;2022-08-01T07:36:58;97715.91;;;22.39;79.04
9746;BME280;4912;50.836;12.958;2022-08-01T07:39:28;97728.31;;;22.36;79.76
9746;BME280;4912;50.836;12.958;2022-08-01T07:41:59;97734.63;;;22.29;81.77
9746;BME280;4912;50.836;12.958;2022-08-01T07:44:39;97732.84;;;22.19;86.38
9746;BME280;4912;50.836;12.958;2022-08-01T07:47:10;97740.16;;;22.01;89.39
9746;BME280;4912;50.836;12.958;2022-08-01T07:49:40;97740.16;;;22.01;89.42
9746;BME280;4912;50.836;12.958;2022-08-01T07:52:13;97746.78;;;21.90;91.25
9746;BME280;4912;50.836;12.958;2022-08-01T07:54:43;97738.00;;;21.94;91.69
9746;BME280;4912;50.836;12.958;2022-08-01T07:57:18;97737.16;;;21.86;93.52
9746;BME280;4912;50.836;12.958;2022-08-01T07:59:48;97749.59;;;21.90;92.45
9746;BME280;4912;50.836;12.958;2022-08-01T08:02:18;97746.03;;;22.03;92.50
9746;BME280;4912;50.836;12.958;2022-08-01T08:04:49;97746.75;;;22.03;91.71
9746;BME280;4912;50.836;12.958;2022-08-01T08:07:21;97746.16;;;21.84;92.43
9746;BME280;4912;50.836;12.958;2022-08-01T08:09:52;97746.69;;;21.96;93.00
9746;BME280;4912;50.836;12.958;2022-08-01T08:12:22;97746.34;;;21.99;93.62
9746;BME280;4912;50.836;12.958;2022-08-01T08:14:55;97735.94;;;22.49;91.42
9746;BME280;4912;50.836;12.958;2022-08-01T08:17:27;97742.09;;;23.17;86.42
9746;BME280;4912;50.836;12.958;2022-08-01T08:20:03;97746.13;;;23.65;82.77
9746;BME280;4912;50.836;12.958;2022-08-01T08:22:38;97747.69;;;24.48;79.12
9746;BME280;4912;50.836;12.958;2022-08-01T08:25:09;97734.47;;;24.43;77.45
9746;BME280;4912;50.836;12.958;2022-08-01T08:27:39;97738.44;;;24.93;76.14
9746;BME280;4912;50.836;12.958;2022-08-01T08:30:10;97745.41;;;24.84;74.95
9746;BME280;4912;50.836;12.958;2022-08-01T08:32:41;97746.34;;;24.72;74.31
9746;BME280;4912;50.836;12.958;2022-08-01T08:35:11;97744.09;;;25.01;74.20
9746;BME280;4912;50.836;12.958;2022-08-01T08:37:51;97743.72;;;24.97;73.46
9746;BME280;4912;50.836;12.958;2022-08-01T08:40:29;97747.66;;;25.16;73.24
9746;BME280;4912;50.836;12.958;2022-08-01T08:43:00;97741.34;;;25.41;71.73
9746;BME280;4912;50.836;12.958;2022-08-01T08:45:33;97737.06;;;25.17;72.48
9746;BME280;4912;50.836;12.958;2022-08-01T08:48:24;97747.50;;;25.07;71.91
9746;BME280;4912;50.836;12.958;2022-08-01T08:50:55;97756.16;;;24.86;74.25
9746;BME280;4912;50.836;12.958;2022-08-01T08:53:29;97754.66;;;25.08;73.77
9746;BME280;4912;50.836;12.958;2022-08-01T08:56:02;97751.63;;;25.21;72.54
9746;BME280;4912;50.836;12.958;2022-08-01T08:58:35;97759.94;;;25.19;71.97
9746;BME280;4912;50.836;12.958;2022-08-01T09:01:06;97757.09;;;25.19;71.27
9746;BME280;4912;50.836;12.958;2022-08-01T09:03:37;97759.03;;;25.72;70.02
9746;BME280;4912;50.836;12.958;2022-08-01T09:06:08;97762.00;;;26.54;65.41
9746;BME280;4912;50.836;12.958;2022-08-01T09:08:41;97764.22;;;26.38;64.71
9746;BME280;4912;50.836;12.958;2022-08-01T09:11:11;97756.69;;;26.33;64.46
9746;BME280;4912;50.836;12.958;2022-08-01T09:14:02;97764.84;;;26.54;62.42
9746;BME280;4912;50.836;12.958;2022-08-01T09:16:35;97756.16;;;26.19;61.71
9746;BME280;4912;50.836;12.958;2022-08-01T09:19:16;97767.25;;;25.92;62.62
9746;BME280;4912;50.836;12.958;2022-08-01T09:22:08;97763.63;;;26.64;59.13
9746;BME280;4912;50.836;12.958;2022-08-01T09:24:42;97769.69;;;26.36;60.22
9746;BME280;4912;50.836;12.958;2022-08-01T09:27:17;97765.56;;;26.29;60.09
9746;BME280;4912;50.836;12.958;2022-08-01T09:29:51;97767.44;;;26.84;59.97
9746;BME280;4912;50.836;12.958;2022-08-01T09:32:28;97776.03;;;27.01;59.04
9746;BME280;4912;50.836;12.958;2022-08-01T09:35:23;97771.28;;;27.04;59.18
9746;BME280;4912;50.836;12.958;2022-08-01T09:38:13;97770.41;;;26.69;59.09
9746;BME280;4912;50.836;12.958;2022-08-01T09:40:50;97770.09;;;26.57;59.90
9746;BME280;4912;50.836;12.958;2022-08-01T09:43:25;97777.91;;;26.57;61.25
9746;BME280;4912;50.836;12.958;2022-08-01T09:45:59;97774.22;;;26.39;60.74
9746;BME280;4912;50.836;12.958;2022-08-01T09:48:29;97766.63;;;26.09;61.40
9746;BME280;4912;50.836;12.958;2022-08-01T09:51:00;97771.88;;;26.13;61.81
9746;BME280;4912;50.836;12.958;2022-08-01T09:53:43;97773.91;;;26.27;61.38
9746;BME280;4912;50.836;12.958;2022-08-01T09:56:22;97774.81;;;25.97;60.91
9746;BME280;4912;50.836;12.958;2022-08-01T09:58:55;97781.72;;;28.04;54.98
9746;BME280;4912;50.836;12.958;2022-08-01T10:01:44;97773.84;;;28.30;53.15
9746;BME280;4912;50.836;12.958;2022-08-01T10:04:16;97776.53;;;29.01;51.91
9746;BME280;4912;50.836;12.958;2022-08-01T10:06:49;97774.25;;;29.64;50.42
9746;BME280;4912;50.836;12.958;2022-08-01T10:09:28;97774.75;;;28.69;51.99
9746;BME280;4912;50.836;12.958;2022-08-01T10:12:10;97760.00;;;28.80;52.62
9746;BME280;4912;50.836;12.958;2022-08-01T10:14:43;97755.66;;;29.44;49.53
9746;BME280;4912;50.836;12.958;2022-08-01T10:17:18;97758.44;;;29.15;50.81
9746;BME280;4912;50.836;12.958;2022-08-01T10:19:50;97768.63;;;28.36;51.90
9746;BME280;4912;50.836;12.958;2022-08-01T10:22:24;97770.31;;;28.39;52.56
9746;BME280;4912;50.836;12.958;2022-08-01T10:24:56;97764.56;;;29.12;49.40
9746;BME280;4912;50.836;12.958;2022-08-01T10:27:29;97762.69;;;30.01;47.71
9746;BME280;4912;50.836;12.958;2022-08-01T10:30:06;97762.47;;;29.03;46.86
9746;BME280;4912;50.836;12.958;2022-08-01T10:32:50;97765.44;;;28.59;48.51
9746;BME280;4912;50.836;12.958;2022-08-01T10:35:21;97761.03;;;28.48;49.35
9746;BME280;4912;50.836;12.958;2022-08-01T10:38:12;97744.09;;;29.42;47.98
9746;BME280;4912;50.836;12.958;2022-08-01T10:40:43;97746.47;;;30.03;47.63
9746;BME280;4912;50.836;12.958;2022-08-01T10:43:17;97742.25;;;30.04;45.69
9746;BME280;4912;50.836;12.958;2022-08-01T10:45:49;97748.56;;;30.63;44.06
9746;BME280;4912;50.836;12.958;2022-08-01T10:48:34;97758.97;;;29.50;47.04
9746;BME280;4912;50.836;12.958;2022-08-01T10:51:10;97759.59;;;28.30;50.10
9746;BME280;4912;50.836;12.958;2022-08-01T10:53:50;97765.94;;;27.94;51.83
9746;BME280;4912;50.836;12.958;2022-08-01T10:56:38;97760.22;;;27.33;53.41
9746;BME280;4912;50.836;12.958;2022-08-01T10:59:14;97766.69;;;27.08;54.38
9746;BME280;4912;50.836;12.958;2022-08-01T11:02:06;97764.94;;;28.79;51.12
9746;BME280;4912;50.836;12.958;2022-08-01T11:04:48;97751.56;;;28.72;49.56
9746;BME280;4912;50.836;12.958;2022-08-01T11:07:38;97762.41;;;28.20;49.86
9746;BME280;4912;50.836;12.958;2022-08-01T11:10:22;97756.84;;;28.49;49.61
9746;BME280;4912;50.836;12.958;2022-08-01T11:12:54;97757.13;;;29.84;47.37
9746;BME280;4912;50.836;12.958;2022-08-01T11:15:28;97760.31;;;31.19;44.39
9746;BME280;4912;50.836;12.958;2022-08-01T11:18:00;97764.53;;;32.71;41.76
9746;BME280;4912;50.836;12.958;2022-08-01T11:20:34;97768.22;;;32.05;40.65
9746;BME280;4912;50.836;12.958;2022-08-01T11:23:18;97762.41;;;30.47;43.82
9746;BME280;4912;50.836;12.958;2022-08-01T11:26:10;97757.53;;;29.13;45.89
9746;BME280;4912;50.836;12.958;2022-08-01T11:29:16;97764.38;;;28.54;48.63
9746;BME280;4912;50.836;12.958;2022-08-01T11:32:24;97760.78;;;30.54;44.55
9746;BME280;4912;50.836;12.958;2022-08-01T11:35:08;97764.06;;;32.30;40.98
9746;BME280;4912;50.836;12.958;2022-08-01T11:37:43;97752.78;;;31.66;41.61
9746;BME280;4912;50.836;12.958;2022-08-01T11:40:17;97750.63;;;33.49;39.55
9746;BME280;4912;50.836;12.958;2022-08-01T11:43:17;97760.19;;;34.27;36.69
9746;BME280;4912;50.836;12.958;2022-08-01T11:45:48;97756.81;;;34.44;36.71
9746;BME280;4912;50.836;12.958;2022-08-01T11:48:25;97739.50;;;35.52;34.28
9746;BME280;4912;50.836;12.958;2022-08-01T11:50:57;97745.28;;;36.40;31.95
9746;BME280;4912;50.836;12.958;2022-08-01T11:53:29;97743.97;;;35.41;32.51
9746;BME280;4912;50.836;12.958;2022-08-01T11:56:03;97741.34;;;34.90;33.80
9746;BME280;4912;50.836;12.958;2022-08-01T11:58:33;97743.44;;;33.13;35.95
9746;BME280;4912;50.836;12.958;2022-08-01T12:01:04;97739.28;;;32.23;38.14
9746;BME280;4912;50.836;12.958;2022-08-01T12:03:36;97743.22;;;31.52;39.78
9746;BME280;4912;50.836;12.958;2022-08-01T12:06:11;97747.97;;;31.16;40.92
9746;BME280;4912;50.836;12.958;2022-08-01T12:08:42;97747.84;;;31.36;40.55
9746;BME280;4912;50.836;12.958;2022-08-01T12:11:13;97753.69;;;32.92;37.96
9746;BME280;4912;50.836;12.958;2022-08-01T12:13:43;97749.94;;;33.25;37.90
9746;BME280;4912;50.836;12.958;2022-08-01T12:16:16;97751.94;;;32.87;38.18
9746;BME280;4912;50.836;12.958;2022-08-01T12:18:56;97748.53;;;34.50;34.88
9746;BME280;4912;50.836;12.958;2022-08-01T12:21:26;97741.31;;;35.18;32.55
9746;BME280;4912;50.836;12.958;2022-08-01T12:24:00;97737.06;;;35.19;33.09
9746;BME280;4912;50.836;12.958;2022-08-01T12:26:40;97739.94;;;34.78;34.33
9746;BME280;4912;50.836;12.958;2022-08-01T12:29:10;97748.56;;;33.26;36.75
9746;BME280;4912;50.836;12.958;2022-08-01T12:32:00;97752.59;;;32.18;38.92
9746;BME280;4912;50.836;12.958;2022-08-01T12:34:33;97757.31;;;31.81;39.38
9746;BME280;4912;50.836;12.958;2022-08-01T12:37:04;97739.84;;;33.98;35.72
9746;BME280;4912;50.836;12.958;2022-08-01T12:39:36;97749.28;;;35.60;32.42
9746;BME280;4912;50.836;12.958;2022-08-01T12:42:07;97748.03;;;35.50;31.88
9746;BME280;4912;50.836;12.958;2022-08-01T12:44:39;97739.72;;;33.22;35.07
9746;BME280;4912;50.836;12.958;2022-08-01T12:47:10;97750.38;;;31.95;38.13
9746;BME280;4912;50.836;12.958;2022-08-01T12:49:44;97744.31;;;31.04;39.18
9746;BME280;4912;50.836;12.958;2022-08-01T12:52:15;97748.75;;;30.55;40.72
9746;BME280;4912;50.836;12.958;2022-08-01T12:55:11;97754.41;;;30.15;41.43
9746;BME280;4912;50.836;12.958;2022-08-01T12:57:45;97761.50;;;29.75;42.52
9746;BME280;4912;50.836;12.958;2022-08-01T13:00:22;97757.72;;;30.21;41.76
9746;BME280;4912;50.836;12.958;2022-08-01T13:03:02;97751.34;;;31.88;38.67
9746;BME280;4912;50.836;12.958;2022-08-01T13:05:47;97749.78;;;34.47;34.45
9746;BME280;4912;50.836;12.958;2022-08-01T13:08:19;97756.31;;;32.77;36.58
9746;BME280;4912;50.836;12.958;2022-08-01T13:10:55;97761.28;;;32.76;36.55
9746;BME280;4912;50.836;12.958;2022-08-01T13:13:38;97748.53;;;32.44;37.59
9746;BME280;4912;50.836;12.958;2022-08-01T13:16:10;97754.56;;;32.72;37.90
9746;BME280;4912;50.836;12.958;2022-08-01T13:19:01;97750.16;;;33.78;35.14
9746;BME280;4912;50.836;12.958;2022-08-01T13:21:34;97758.66;;;32.57;36.50
9746;BME280;4912;50.836;12.958;2022-08-01T13:24:26;97761.88;;;31.53;38.57
9746;BME280;4912;50.836;12.958;2022-08-01T13:26:58;97760.31;;;31.19;39.28
9746;BME280;4912;50.836;12.958;2022-08-01T13:29:32;97762.53;;;32.97;36.02
9746;BME280;4912;50.836;12.958;2022-08-01T13:32:15;97759.28;;;32.90;36.55
9746;BME280;4912;50.836;12.958;2022-08-01T13:35:02;97747.56;;;34.60;33.35
9746;BME280;4912;50.836;12.958;2022-08-01T13:37:37;97747.34;;;34.56;32.83
9746;BME280;4912;50.836;12.958;2022-08-01T13:40:10;97746.28;;;35.72;31.87
9746;BME280;4912;50.836;12.958;2022-08-01T13:42:40;97742.41;;;36.71;30.50
9746;BME280;4912;50.836;12.958;2022-08-01T13:45:11;97744.41;;;37.83;28.82
9746;BME280;4912;50.836;12.958;2022-08-01T13:47:41;97739.38;;;37.32;28.87
9746;BME280;4912;50.836;12.958;2022-08-01T13:50:31;97754.75;;;35.41;31.57
9746;BME280;4912;50.836;12.958;2022-08-01T13:53:05;97745.59;;;33.98;33.57
9746;BME280;4912;50.836;12.958;2022-08-01T13:55:36;97756.94;;;32.87;34.95